sensor_id;sensor_type;location;lat;lon;timestamp;pressure;altitude;pressure_sealevel;temperature
49785;BMP280;35679;38.732;-121.358;2023-06-04T00:00:38;100507.63;;;27.43
49785;BMP280;35679;38.732;-121.358;2023-06-04T00:03:28;100505.75;;;27.44
49785;BMP280;35679;38.732;-121.358;2023-06-04T00:06:17;100507.91;;;27.47
49785;BMP280;35679;38.732;-121.358;2023-06-04T00:09:07;100504.38;;;27.46
49785;BMP280;35679;38.732;-121.358;2023-06-04T00:11:56;100497.84;;;27.52
49785;BMP280;35679;38.732;-121.358;2023-06-04T00:14:46;100498.03;;;27.66
49785;BMP280;35679;38.732;-121.358;2023-06-04T00:17:36;100491.47;;;27.72
49785;BMP280;35679;38.732;-121.358;2023-06-04T00:20:25;100486.03;;;27.72
49785;BMP280;35679;38.732;-121.358;2023-06-04T00:23:14;100488.75;;;27.72
49785;BMP280;35679;38.732;-121.358;2023-06-04T00:26:04;100483.31;;;27.77
49785;BMP280;35679;38.732;-121.358;2023-06-04T00:28:56;100488.69;;;27.82
49785;BMP280;35679;38.732;-121.358;2023-06-04T00:31:46;100479.97;;;27.84
49785;BMP280;35679;38.732;-121.358;2023-06-04T00:34:35;100486.53;;;27.79
49785;BMP280;35679;38.732;-121.358;2023-06-04T00:37:28;100486.25;;;27.80
49785;BMP280;35679;38.732;-121.358;2023-06-04T00:40:18;100475.19;;;27.77
49785;BMP280;35679;38.732;-121.358;2023-06-04T00:44:09;100473.66;;;28.22
49785;BMP280;35679;38.732;-121.358;2023-06-04T00:47:00;100474.22;;;28.19
49785;BMP280;35679;38.732;-121.358;2023-06-04T00:49:51;100473.41;;;28.19
49785;BMP280;35679;38.732;-121.358;2023-06-04T00:52:41;100471.81;;;28.13
49785;BMP280;35679;38.732;-121.358;2023-06-04T00:55:30;100461.81;;;28.08
49785;BMP280;35679;38.732;-121.358;2023-06-04T00:58:20;100459.09;;;28.08
49785;BMP280;35679;38.732;-121.358;2023-06-04T01:04:31;100468.28;;;28.17
49785;BMP280;35679;38.732;-121.358;2023-06-04T01:07:22;100465.00;;;28.15
49785;BMP280;35679;38.732;-121.358;2023-06-04T01:10:15;100461.22;;;28.16
49785;BMP280;35679;38.732;-121.358;2023-06-04T01:13:04;100463.91;;;28.16
49785;BMP280;35679;38.732;-121.358;2023-06-04T01:15:54;100461.22;;;28.16
49785;BMP280;35679;38.732;-121.358;2023-06-04T01:18:43;100460.69;;;28.14
49785;BMP280;35679;38.732;-121.358;2023-06-04T01:21:34;100465.56;;;28.17
49785;BMP280;35679;38.732;-121.358;2023-06-04T01:24:27;100456.84;;;28.20
49785;BMP280;35679;38.732;-121.358;2023-06-04T01:27:17;100452.94;;;28.73
49785;BMP280;35679;38.732;-121.358;2023-06-04T01:30:09;100462.16;;;28.95
49785;BMP280;35679;38.732;-121.358;2023-06-04T01:33:00;100458.75;;;29.08
49785;BMP280;35679;38.732;-121.358;2023-06-04T01:35:50;100461.94;;;29.28
49785;BMP280;35679;38.732;-121.358;2023-06-04T01:38:40;100459.31;;;29.42
49785;BMP280;35679;38.732;-121.358;2023-06-04T01:41:29;100455.19;;;29.44
49785;BMP280;35679;38.732;-121.358;2023-06-04T01:44:18;100447.78;;;29.50
49785;BMP280;35679;38.732;-121.358;2023-06-04T01:47:08;100450.91;;;29.57
49785;BMP280;35679;38.732;-121.358;2023-06-04T01:49:57;100447.31;;;29.61
49785;BMP280;35679;38.732;-121.358;2023-06-04T01:52:47;100443.41;;;29.67
49785;BMP280;35679;38.732;-121.358;2023-06-04T01:55:37;100446.53;;;29.74
49785;BMP280;35679;38.732;-121.358;2023-06-04T01:58:26;100451.09;;;29.79
49785;BMP280;35679;38.732;-121.358;2023-06-04T02:01:16;100442.03;;;29.83
49785;BMP280;35679;38.732;-121.358;2023-06-04T02:04:05;100441.13;;;29.87
49785;BMP280;35679;38.732;-121.358;2023-06-04T02:06:55;100442.25;;;29.87
49785;BMP280;35679;38.732;-121.358;2023-06-04T02:09:45;100432.16;;;29.87
49785;BMP280;35679;38.732;-121.358;2023-06-04T02:12:39;100438.41;;;29.87
49785;BMP280;35679;38.732;-121.358;2023-06-04T02:15:30;100432.09;;;29.92
49785;BMP280;35679;38.732;-121.358;2023-06-04T02:18:20;100429.06;;;29.93
49785;BMP280;35679;38.732;-121.358;2023-06-04T02:21:11;100431.22;;;29.96
49785;BMP280;35679;38.732;-121.358;2023-06-04T02:24:01;100431.22;;;29.96
49785;BMP280;35679;38.732;-121.358;2023-06-04T02:26:50;100424.63;;;29.97
49785;BMP280;35679;38.732;-121.358;2023-06-04T02:29:40;100427.66;;;29.96
49785;BMP280;35679;38.732;-121.358;2023-06-04T02:32:30;100431.13;;;30.01
49785;BMP280;35679;38.732;-121.358;2023-06-04T02:35:19;100424.34;;;29.99
49785;BMP280;35679;38.732;-121.358;2023-06-04T02:38:09;100423.53;;;29.98
49785;BMP280;35679;38.732;-121.358;2023-06-04T02:40:59;100425.94;;;30.00
49785;BMP280;35679;38.732;-121.358;2023-06-04T02:43:49;100427.25;;;30.02
49785;BMP280;35679;38.732;-121.358;2023-06-04T02:46:38;100422.44;;;29.99
49785;BMP280;35679;38.732;-121.358;2023-06-04T02:49:28;100426.25;;;29.98
49785;BMP280;35679;38.732;-121.358;2023-06-04T02:52:17;100427.97;;;29.94
49785;BMP280;35679;38.732;-121.358;2023-06-04T02:55:08;100425.25;;;29.94
49785;BMP280;35679;38.732;-121.358;2023-06-04T02:57:57;100434.81;;;29.92
49785;BMP280;35679;38.732;-121.358;2023-06-04T03:00:47;100438.94;;;29.89
49785;BMP280;35679;38.732;-121.358;2023-06-04T03:03:36;100440.31;;;29.87
49785;BMP280;35679;38.732;-121.358;2023-06-04T03:06:26;100442.78;;;29.88
49785;BMP280;35679;38.732;-121.358;2023-06-04T03:09:15;100443.03;;;29.87
49785;BMP280;35679;38.732;-121.358;2023-06-04T03:12:05;100448.47;;;29.87
49785;BMP280;35679;38.732;-121.358;2023-06-04T03:14:55;100443.66;;;29.84
49785;BMP280;35679;38.732;-121.358;2023-06-04T03:17:45;100451.28;;;29.82
49785;BMP280;35679;38.732;-121.358;2023-06-04T03:20:34;100450.28;;;29.78
49785;BMP280;35679;38.732;-121.358;2023-06-04T03:23:26;100451.38;;;29.77
49785;BMP280;35679;38.732;-121.358;2023-06-04T03:26:15;100450.88;;;29.75
49785;BMP280;35679;38.732;-121.358;2023-06-04T03:29:05;100459.03;;;29.75
49785;BMP280;35679;38.732;-121.358;2023-06-04T03:31:55;100457.13;;;29.76
49785;BMP280;35679;38.732;-121.358;2023-06-04T03:34:45;100460.13;;;29.74
49785;BMP280;35679;38.732;-121.358;2023-06-04T03:37:34;100456.91;;;29.72
49785;BMP280;35679;38.732;-121.358;2023-06-04T03:40:24;100456.09;;;29.72
49785;BMP280;35679;38.732;-121.358;2023-06-04T03:43:14;100453.97;;;29.69
49785;BMP280;35679;38.732;-121.358;2023-06-04T03:46:04;100458.09;;;29.66
49785;BMP280;35679;38.732;-121.358;2023-06-04T03:48:53;100457.88;;;29.63
49785;BMP280;35679;38.732;-121.358;2023-06-04T03:51:43;100457.66;;;29.59
49785;BMP280;35679;38.732;-121.358;2023-06-04T03:54:33;100460.16;;;29.56
49785;BMP280;35679;38.732;-121.358;2023-06-04T03:57:23;100466.72;;;29.55
49785;BMP280;35679;38.732;-121.358;2023-06-04T04:00:18;100461.28;;;29.55
49785;BMP280;35679;38.732;-121.358;2023-06-04T04:03:12;100472.75;;;29.52
49785;BMP280;35679;38.732;-121.358;2023-06-04T04:06:04;100476.38;;;29.47
49785;BMP280;35679;38.732;-121.358;2023-06-04T04:08:54;100475.06;;;29.45
49785;BMP280;35679;38.732;-121.358;2023-06-04T04:11:44;100477.56;;;29.41
49785;BMP280;35679;38.732;-121.358;2023-06-04T04:14:34;100491.72;;;29.38
49785;BMP280;35679;38.732;-121.358;2023-06-04T04:17:24;100494.16;;;29.40
49785;BMP280;35679;38.732;-121.358;2023-06-04T04:20:13;100490.41;;;29.36
49785;BMP280;35679;38.732;-121.358;2023-06-04T04:23:11;100497.22;;;29.33
49785;BMP280;35679;38.732;-121.358;2023-06-04T04:26:04;100495.88;;;29.31
49785;BMP280;35679;38.732;-121.358;2023-06-04T04:28:55;100506.53;;;29.27
49785;BMP280;35679;38.732;-121.358;2023-06-04T04:31:52;100502.78;;;29.23
49785;BMP280;35679;38.732;-121.358;2023-06-04T04:34:53;100506.09;;;29.20
49785;BMP280;35679;38.732;-121.358;2023-06-04T04:37:49;100508.53;;;29.22
49785;BMP280;35679;38.732;-121.358;2023-06-04T04:40:40;100518.59;;;29.21
49785;BMP280;35679;38.732;-121.358;2023-06-04T04:43:32;100512.09;;;29.17
49785;BMP280;35679;38.732;-121.358;2023-06-04T04:46:30;100519.25;;;29.14
49785;BMP280;35679;38.732;-121.358;2023-06-04T04:49:20;100510.00;;;29.15
49785;BMP280;35679;38.732;-121.358;2023-06-04T04:52:09;100514.41;;;29.11
49785;BMP280;35679;38.732;-121.358;2023-06-04T04:55:01;100515.81;;;29.08
49785;BMP280;35679;38.732;-121.358;2023-06-04T04:57:53;100524.81;;;29.04
49785;BMP280;35679;38.732;-121.358;2023-06-04T05:00:44;100515.09;;;28.98
49785;BMP280;35679;38.732;-121.358;2023-06-04T05:03:36;100519.50;;;28.94
49785;BMP280;35679;38.732;-121.358;2023-06-04T05:06:27;100516.88;;;28.89
49785;BMP280;35679;38.732;-121.358;2023-06-04T05:09:17;100520.97;;;28.86
49785;BMP280;35679;38.732;-121.358;2023-06-04T05:12:07;100519.66;;;28.84
49785;BMP280;35679;38.732;-121.358;2023-06-04T05:14:58;100519.41;;;28.80
49785;BMP280;35679;38.732;-121.358;2023-06-04T05:17:48;100520.81;;;28.78
49785;BMP280;35679;38.732;-121.358;2023-06-04T05:20:37;100519.47;;;28.75
49785;BMP280;35679;38.732;-121.358;2023-06-04T05:23:30;100520.31;;;28.71
49785;BMP280;35679;38.732;-121.358;2023-06-04T05:26:22;100510.03;;;28.68
49785;BMP280;35679;38.732;-121.358;2023-06-04T05:29:17;100520.13;;;28.62
49785;BMP280;35679;38.732;-121.358;2023-06-04T05:32:07;100521.53;;;28.60
49785;BMP280;35679;38.732;-121.358;2023-06-04T05:34:57;100511.50;;;28.60
49785;BMP280;35679;38.732;-121.358;2023-06-04T05:37:51;100515.00;;;28.61
49785;BMP280;35679;38.732;-121.358;2023-06-04T05:40:47;100519.69;;;28.55
49785;BMP280;35679;38.732;-121.358;2023-06-04T05:43:37;100511.91;;;28.49
49785;BMP280;35679;38.732;-121.358;2023-06-04T05:46:29;100512.16;;;28.48
49785;BMP280;35679;38.732;-121.358;2023-06-04T05:49:18;100511.13;;;28.44
49785;BMP280;35679;38.732;-121.358;2023-06-04T05:52:08;100511.44;;;28.42
49785;BMP280;35679;38.732;-121.358;2023-06-04T05:54:58;100507.16;;;28.36
49785;BMP280;35679;38.732;-121.358;2023-06-04T05:57:48;100508.53;;;28.34
49785;BMP280;35679;38.732;-121.358;2023-06-04T06:00:40;100513.72;;;28.30
49785;BMP280;35679;38.732;-121.358;2023-06-04T06:03:30;100505.34;;;28.27
49785;BMP280;35679;38.732;-121.358;2023-06-04T06:06:20;100515.97;;;28.23
49785;BMP280;35679;38.732;-121.358;2023-06-04T06:09:10;100512.44;;;28.23
49785;BMP280;35679;38.732;-121.358;2023-06-04T06:12:00;100516.03;;;28.18
49785;BMP280;35679;38.732;-121.358;2023-06-04T06:14:50;100513.06;;;28.15
49785;BMP280;35679;38.732;-121.358;2023-06-04T06:17:40;100524.16;;;28.13
49785;BMP280;35679;38.732;-121.358;2023-06-04T06:20:30;100518.22;;;28.11
49785;BMP280;35679;38.732;-121.358;2023-06-04T06:23:21;100514.69;;;28.11
49785;BMP280;35679;38.732;-121.358;2023-06-04T06:26:12;100517.19;;;28.07
49785;BMP280;35679;38.732;-121.358;2023-06-04T06:29:08;100520.47;;;28.04
49785;BMP280;35679;38.732;-121.358;2023-06-04T06:31:58;100525.88;;;28.04
49785;BMP280;35679;38.732;-121.358;2023-06-04T06:34:48;100529.97;;;28.02
49785;BMP280;35679;38.732;-121.358;2023-06-04T06:37:37;100527.56;;;28.00
49785;BMP280;35679;38.732;-121.358;2023-06-04T06:40:30;100522.72;;;27.97
49785;BMP280;35679;38.732;-121.358;2023-06-04T06:43:20;100525.97;;;27.94
49785;BMP280;35679;38.732;-121.358;2023-06-04T06:46:09;100523.31;;;27.89
49785;BMP280;35679;38.732;-121.358;2023-06-04T06:48:59;100518.19;;;27.88
49785;BMP280;35679;38.732;-121.358;2023-06-04T06:51:48;100516.25;;;27.88
49785;BMP280;35679;38.732;-121.358;2023-06-04T06:54:38;100527.69;;;27.85
49785;BMP280;35679;38.732;-121.358;2023-06-04T06:57:27;100522.28;;;27.85
49785;BMP280;35679;38.732;-121.358;2023-06-04T07:00:17;100528.25;;;27.83
49785;BMP280;35679;38.732;-121.358;2023-06-04T07:03:07;100519.59;;;27.81
49785;BMP280;35679;38.732;-121.358;2023-06-04T07:05:57;100520.69;;;27.80
49785;BMP280;35679;38.732;-121.358;2023-06-04T07:08:47;100518.78;;;27.80
49785;BMP280;35679;38.732;-121.358;2023-06-04T07:11:37;100523.72;;;27.73
49785;BMP280;35679;38.732;-121.358;2023-06-04T07:14:26;100516.44;;;27.69
49785;BMP280;35679;38.732;-121.358;2023-06-04T07:17:16;100520.22;;;27.68
49785;BMP280;35679;38.732;-121.358;2023-06-04T07:20:06;100524.56;;;27.69
49785;BMP280;35679;38.732;-121.358;2023-06-04T07:22:57;100533.00;;;27.67
49785;BMP280;35679;38.732;-121.358;2023-06-04T07:25:46;100522.19;;;27.62
49785;BMP280;35679;38.732;-121.358;2023-06-04T07:28:36;100531.69;;;27.60
49785;BMP280;35679;38.732;-121.358;2023-06-04T07:31:25;100524.91;;;27.57
49785;BMP280;35679;38.732;-121.358;2023-06-04T07:34:15;100519.53;;;27.52
49785;BMP280;35679;38.732;-121.358;2023-06-04T07:37:04;100517.91;;;27.51
49785;BMP280;35679;38.732;-121.358;2023-06-04T07:39:54;100524.97;;;27.47
49785;BMP280;35679;38.732;-121.358;2023-06-04T07:42:45;100525.78;;;27.48
49785;BMP280;35679;38.732;-121.358;2023-06-04T07:45:36;100527.94;;;27.51
49785;BMP280;35679;38.732;-121.358;2023-06-04T07:48:25;100525.44;;;27.54
49785;BMP280;35679;38.732;-121.358;2023-06-04T07:51:19;100535.22;;;27.55
49785;BMP280;35679;38.732;-121.358;2023-06-04T07:54:08;100533.59;;;27.54
49785;BMP280;35679;38.732;-121.358;2023-06-04T07:56:59;100533.13;;;27.47
49785;BMP280;35679;38.732;-121.358;2023-06-04T07:59:48;100532.03;;;27.43
49785;BMP280;35679;38.732;-121.358;2023-06-04T08:02:38;100527.19;;;27.40
49785;BMP280;35679;38.732;-121.358;2023-06-04T08:05:28;100531.25;;;27.38
49785;BMP280;35679;38.732;-121.358;2023-06-04T08:08:18;100521.81;;;27.35
49785;BMP280;35679;38.732;-121.358;2023-06-04T08:11:07;100521.53;;;27.32
49785;BMP280;35679;38.732;-121.358;2023-06-04T08:13:57;100525.91;;;27.28
49785;BMP280;35679;38.732;-121.358;2023-06-04T08:16:46;100529.72;;;27.27
49785;BMP280;35679;38.732;-121.358;2023-06-04T08:19:35;100523.25;;;27.23
49785;BMP280;35679;38.732;-121.358;2023-06-04T08:22:25;100524.06;;;27.18
49785;BMP280;35679;38.732;-121.358;2023-06-04T08:25:14;100528.69;;;27.18
49785;BMP280;35679;38.732;-121.358;2023-06-04T08:28:04;100524.91;;;27.14
49785;BMP280;35679;38.732;-121.358;2023-06-04T08:30:53;100525.19;;;27.13
49785;BMP280;35679;38.732;-121.358;2023-06-04T08:33:45;100528.19;;;27.06
49785;BMP280;35679;38.732;-121.358;2023-06-04T08:36:35;100527.69;;;27.04
49785;BMP280;35679;38.732;-121.358;2023-06-04T08:39:25;100532.59;;;26.97
49785;BMP280;35679;38.732;-121.358;2023-06-04T08:42:29;100525.50;;;26.96
49785;BMP280;35679;38.732;-121.358;2023-06-04T08:45:20;100522.81;;;26.96
49785;BMP280;35679;38.732;-121.358;2023-06-04T08:48:10;100515.78;;;26.90
49785;BMP280;35679;38.732;-121.358;2023-06-04T08:51:02;100533.69;;;26.86
49785;BMP280;35679;38.732;-121.358;2023-06-04T08:53:55;100524.44;;;26.92
49785;BMP280;35679;38.732;-121.358;2023-06-04T08:56:46;100523.41;;;26.88
49785;BMP280;35679;38.732;-121.358;2023-06-04T08:59:36;100515.81;;;26.85
49785;BMP280;35679;38.732;-121.358;2023-06-04T09:02:27;100518.00;;;26.83
49785;BMP280;35679;38.732;-121.358;2023-06-04T09:05:22;100511.50;;;26.79
49785;BMP280;35679;38.732;-121.358;2023-06-04T09:08:17;100517.19;;;26.78
49785;BMP280;35679;38.732;-121.358;2023-06-04T09:11:10;100520.19;;;26.76
49785;BMP280;35679;38.732;-121.358;2023-06-04T09:14:01;100513.44;;;26.74
49785;BMP280;35679;38.732;-121.358;2023-06-04T09:16:53;100510.19;;;26.72
49785;BMP280;35679;38.732;-121.358;2023-06-04T09:19:47;100509.66;;;26.70
49785;BMP280;35679;38.732;-121.358;2023-06-04T09:22:37;100512.09;;;26.66
49785;BMP280;35679;38.732;-121.358;2023-06-04T09:25:27;100508.06;;;26.64
49785;BMP280;35679;38.732;-121.358;2023-06-04T09:28:16;100513.75;;;26.62
49785;BMP280;35679;38.732;-121.358;2023-06-04T09:31:16;100502.38;;;26.60
49785;BMP280;35679;38.732;-121.358;2023-06-04T09:34:06;100500.25;;;26.57
49785;BMP280;35679;38.732;-121.358;2023-06-04T09:36:56;100504.56;;;26.53
49785;BMP280;35679;38.732;-121.358;2023-06-04T09:39:55;100506.75;;;26.51
49785;BMP280;35679;38.732;-121.358;2023-06-04T09:42:46;100505.66;;;26.52
49785;BMP280;35679;38.732;-121.358;2023-06-04T09:45:38;100500.78;;;26.49
49785;BMP280;35679;38.732;-121.358;2023-06-04T09:48:27;100505.66;;;26.48
49785;BMP280;35679;38.732;-121.358;2023-06-04T09:51:16;100513.25;;;26.46
49785;BMP280;35679;38.732;-121.358;2023-06-04T09:54:08;100515.69;;;26.42
49785;BMP280;35679;38.732;-121.358;2023-06-04T09:56:58;100515.44;;;26.39
49785;BMP280;35679;38.732;-121.358;2023-06-04T09:59:50;100503.28;;;26.36
49785;BMP280;35679;38.732;-121.358;2023-06-04T10:02:44;100507.06;;;26.35
49785;BMP280;35679;38.732;-121.358;2023-06-04T10:05:37;100504.88;;;26.32
49785;BMP280;35679;38.732;-121.358;2023-06-04T10:08:29;100501.09;;;26.28
49785;BMP280;35679;38.732;-121.358;2023-06-04T10:11:26;100504.34;;;26.25
49785;BMP280;35679;38.732;-121.358;2023-06-04T10:14:27;100501.63;;;26.25
49785;BMP280;35679;38.732;-121.358;2023-06-04T10:17:22;100501.91;;;26.24
49785;BMP280;35679;38.732;-121.358;2023-06-04T10:20:12;100501.38;;;26.22
49785;BMP280;35679;38.732;-121.358;2023-06-04T10:23:02;100503.28;;;26.21
49785;BMP280;35679;38.732;-121.358;2023-06-04T10:25:53;100500.03;;;26.19
49785;BMP280;35679;38.732;-121.358;2023-06-04T10:28:43;100508.41;;;26.18
49785;BMP280;35679;38.732;-121.358;2023-06-04T10:31:33;100505.72;;;26.13
49785;BMP280;35679;38.732;-121.358;2023-06-04T10:34:22;100512.50;;;26.10
49785;BMP280;35679;38.732;-121.358;2023-06-04T10:37:21;100518.19;;;26.04
49785;BMP280;35679;38.732;-121.358;2023-06-04T10:40:11;100515.47;;;25.99
49785;BMP280;35679;38.732;-121.358;2023-06-04T10:43:11;100510.59;;;25.96
49785;BMP280;35679;38.732;-121.358;2023-06-04T10:46:11;100509.53;;;25.92
49785;BMP280;35679;38.732;-121.358;2023-06-04T10:49:01;100506.56;;;25.93
49785;BMP280;35679;38.732;-121.358;2023-06-04T10:51:51;100509.53;;;25.92
49785;BMP280;35679;38.732;-121.358;2023-06-04T10:54:42;100506.03;;;25.86
49785;BMP280;35679;38.732;-121.358;2023-06-04T10:57:32;100506.28;;;25.85
49785;BMP280;35679;38.732;-121.358;2023-06-04T11:00:22;100507.38;;;25.84
49785;BMP280;35679;38.732;-121.358;2023-06-04T11:03:12;100503.06;;;25.83
49785;BMP280;35679;38.732;-121.358;2023-06-04T11:06:02;100500.88;;;25.80
49785;BMP280;35679;38.732;-121.358;2023-06-04T11:09:04;100499.53;;;25.78
49785;BMP280;35679;38.732;-121.358;2023-06-04T11:11:58;100500.88;;;25.75
49785;BMP280;35679;38.732;-121.358;2023-06-04T11:14:57;100496.84;;;25.73
49785;BMP280;35679;38.732;-121.358;2023-06-04T11:17:55;100497.63;;;25.68
49785;BMP280;35679;38.732;-121.358;2023-06-04T11:20:50;100500.84;;;25.65
49785;BMP280;35679;38.732;-121.358;2023-06-04T11:23:41;100500.56;;;25.62
49785;BMP280;35679;38.732;-121.358;2023-06-04T11:29:23;100491.94;;;25.55
49785;BMP280;35679;38.732;-121.358;2023-06-04T11:32:23;100491.41;;;25.53
49785;BMP280;35679;38.732;-121.358;2023-06-04T11:35:13;100491.66;;;25.51
49785;BMP280;35679;38.732;-121.358;2023-06-04T11:38:02;100488.69;;;25.53
49785;BMP280;35679;38.732;-121.358;2023-06-04T11:40:58;100482.22;;;25.49
49785;BMP280;35679;38.732;-121.358;2023-06-04T11:43:49;100487.06;;;25.47
49785;BMP280;35679;38.732;-121.358;2023-06-04T11:46:44;100488.16;;;25.46
49785;BMP280;35679;38.732;-121.358;2023-06-04T11:49:34;100497.63;;;25.43
49785;BMP280;35679;38.732;-121.358;2023-06-04T11:52:26;100507.06;;;25.41
49785;BMP280;35679;38.732;-121.358;2023-06-04T11:55:16;100510.28;;;25.38
49785;BMP280;35679;38.732;-121.358;2023-06-04T11:58:12;100507.03;;;25.36
49785;BMP280;35679;38.732;-121.358;2023-06-04T12:01:02;100522.44;;;25.35
49785;BMP280;35679;38.732;-121.358;2023-06-04T12:03:52;100521.88;;;25.33
49785;BMP280;35679;38.732;-121.358;2023-06-04T12:06:55;100527.84;;;25.30
49785;BMP280;35679;38.732;-121.358;2023-06-04T12:09:49;100517.31;;;25.29
49785;BMP280;35679;38.732;-121.358;2023-06-04T12:12:39;100524.06;;;25.26
49785;BMP280;35679;38.732;-121.358;2023-06-04T12:15:31;100523.78;;;25.23
49785;BMP280;35679;38.732;-121.358;2023-06-04T12:18:24;100518.09;;;25.19
49785;BMP280;35679;38.732;-121.358;2023-06-04T12:21:22;100524.56;;;25.18
49785;BMP280;35679;38.732;-121.358;2023-06-04T12:24:16;100522.94;;;25.17
49785;BMP280;35679;38.732;-121.358;2023-06-04T12:27:07;100534.00;;;25.16
49785;BMP280;35679;38.732;-121.358;2023-06-04T12:29:57;100523.75;;;25.13
49785;BMP280;35679;38.732;-121.358;2023-06-04T12:32:48;100528.59;;;25.11
49785;BMP280;35679;38.732;-121.358;2023-06-04T12:35:37;100522.91;;;25.08
49785;BMP280;35679;38.732;-121.358;2023-06-04T12:38:26;100525.88;;;25.06
49785;BMP280;35679;38.732;-121.358;2023-06-04T12:41:16;100531.50;;;25.05
49785;BMP280;35679;38.732;-121.358;2023-06-04T12:44:05;100520.16;;;25.03
49785;BMP280;35679;38.732;-121.358;2023-06-04T12:46:55;100525.31;;;24.99
49785;BMP280;35679;38.732;-121.358;2023-06-04T12:49:45;100534.47;;;24.98
49785;BMP280;35679;38.732;-121.358;2023-06-04T12:52:34;100526.66;;;24.97
49785;BMP280;35679;38.732;-121.358;2023-06-04T12:55:23;100530.41;;;24.96
49785;BMP280;35679;38.732;-121.358;2023-06-04T12:58:15;100533.34;;;24.94
49785;BMP280;35679;38.732;-121.358;2023-06-04T13:01:06;100535.81;;;24.96
49785;BMP280;35679;38.732;-121.358;2023-06-04T13:03:56;100535.81;;;24.96
49785;BMP280;35679;38.732;-121.358;2023-06-04T13:06:46;100543.91;;;24.91
49785;BMP280;35679;38.732;-121.358;2023-06-04T13:09:36;100546.84;;;24.89
49785;BMP280;35679;38.732;-121.358;2023-06-04T13:12:25;100544.41;;;24.88
49785;BMP280;35679;38.732;-121.358;2023-06-04T13:15:14;100539.00;;;24.88
49785;BMP280;35679;38.732;-121.358;2023-06-04T13:18:05;100541.97;;;24.86
49785;BMP280;35679;38.732;-121.358;2023-06-04T13:20:54;100537.91;;;24.84
49785;BMP280;35679;38.732;-121.358;2023-06-04T13:23:44;100543.03;;;24.85
49785;BMP280;35679;38.732;-121.358;2023-06-04T13:26:37;100533.31;;;24.84
49785;BMP280;35679;38.732;-121.358;2023-06-04T13:29:27;100535.78;;;24.86
49785;BMP280;35679;38.732;-121.358;2023-06-04T13:32:17;100540.06;;;24.87
49785;BMP280;35679;38.732;-121.358;2023-06-04T13:35:07;100534.69;;;24.87
49785;BMP280;35679;38.732;-121.358;2023-06-04T13:37:57;100543.59;;;24.82
49785;BMP280;35679;38.732;-121.358;2023-06-04T13:40:46;100539.53;;;24.80
49785;BMP280;35679;38.732;-121.358;2023-06-04T13:43:36;100547.63;;;24.80
49785;BMP280;35679;38.732;-121.358;2023-06-04T13:46:25;100551.94;;;24.81
49785;BMP280;35679;38.732;-121.358;2023-06-04T13:49:15;100549.75;;;24.78
49785;BMP280;35679;38.732;-121.358;2023-06-04T13:52:04;100546.25;;;24.77
49785;BMP280;35679;38.732;-121.358;2023-06-04T13:54:54;100546.81;;;24.84
49785;BMP280;35679;38.732;-121.358;2023-06-04T13:57:44;100546.53;;;24.76
49785;BMP280;35679;38.732;-121.358;2023-06-04T14:00:33;100552.44;;;24.73
49785;BMP280;35679;38.732;-121.358;2023-06-04T14:03:23;100545.41;;;24.72
49785;BMP280;35679;38.732;-121.358;2023-06-04T14:06:13;100545.19;;;24.73
49785;BMP280;35679;38.732;-121.358;2023-06-04T14:09:03;100542.72;;;24.72
49785;BMP280;35679;38.732;-121.358;2023-06-04T14:11:52;100544.91;;;24.75
49785;BMP280;35679;38.732;-121.358;2023-06-04T14:14:43;100540.88;;;24.77
49785;BMP280;35679;38.732;-121.358;2023-06-04T14:17:33;100531.69;;;24.73
49785;BMP280;35679;38.732;-121.358;2023-06-04T14:20:23;100537.06;;;24.73
49785;BMP280;35679;38.732;-121.358;2023-06-04T14:23:12;100535.69;;;24.71
49785;BMP280;35679;38.732;-121.358;2023-06-04T14:26:02;100531.63;;;24.68
49785;BMP280;35679;38.732;-121.358;2023-06-04T14:28:51;100536.50;;;24.66
49785;BMP280;35679;38.732;-121.358;2023-06-04T14:31:41;100535.66;;;24.66
49785;BMP280;35679;38.732;-121.358;2023-06-04T14:34:31;100537.28;;;24.67
49785;BMP280;35679;38.732;-121.358;2023-06-04T14:37:23;100536.75;;;24.65
49785;BMP280;35679;38.732;-121.358;2023-06-04T14:40:13;100544.84;;;24.65
49785;BMP280;35679;38.732;-121.358;2023-06-04T14:43:02;100541.63;;;24.68
49785;BMP280;35679;38.732;-121.358;2023-06-04T14:45:52;100547.56;;;24.65
49785;BMP280;35679;38.732;-121.358;2023-06-04T14:48:42;100546.47;;;24.66
49785;BMP280;35679;38.732;-121.358;2023-06-04T14:51:31;100548.09;;;24.67
49785;BMP280;35679;38.732;-121.358;2023-06-04T14:54:20;100548.09;;;24.67
49785;BMP280;35679;38.732;-121.358;2023-06-04T14:57:10;100551.06;;;24.65
49785;BMP280;35679;38.732;-121.358;2023-06-04T15:00:00;100547.56;;;24.65
49785;BMP280;35679;38.732;-121.358;2023-06-04T15:02:51;100548.59;;;24.59
49785;BMP280;35679;38.732;-121.358;2023-06-04T15:05:41;100549.97;;;24.61
49785;BMP280;35679;38.732;-121.358;2023-06-04T15:08:30;100547.25;;;24.61
49785;BMP280;35679;38.732;-121.358;2023-06-04T15:11:19;100544.28;;;24.63
49785;BMP280;35679;38.732;-121.358;2023-06-04T15:14:09;100554.81;;;24.64
49785;BMP280;35679;38.732;-121.358;2023-06-04T15:16:58;100552.69;;;24.66
49785;BMP280;35679;38.732;-121.358;2023-06-04T15:19:48;100549.16;;;24.66
49785;BMP280;35679;38.732;-121.358;2023-06-04T15:22:37;100545.38;;;24.67
49785;BMP280;35679;38.732;-121.358;2023-06-04T15:25:26;100545.13;;;24.68
49785;BMP280;35679;38.732;-121.358;2023-06-04T15:28:17;100555.66;;;24.70
49785;BMP280;35679;38.732;-121.358;2023-06-04T15:31:07;100545.94;;;24.69
49785;BMP280;35679;38.732;-121.358;2023-06-04T15:33:56;100558.63;;;24.68
49785;BMP280;35679;38.732;-121.358;2023-06-04T15:36:46;100556.22;;;24.72